Terminal Aerodrome Forecast
Issued by NWS

Home | Current Version | Previous Version | Text Only | Print | Product List | Glossary On
Versions: 1 2 3 4 5 6 7 8 9 10 11 12 13 14 15 16 17 18 19
000
FTUS46 KMFR 250500
TAFRBG
TAF
KRBG 250520Z 2506/2606 VRB03KT 2SM BR OVC005
     FM250900 VRB03KT P6SM VCSH OVC008
     FM251600 18010KT P6SM -RA OVC025
     FM251900 18012G20KT P6SM RA OVC025
     FM252300 36010KT P6SM -SHRA OVC020
     FM260200 VRB03KT P6SM -SHRA OVC025=

USA.gov is the U.S. government's official web portal to all federal, state and local government web resources and services.